Time,TemperatureF,DewpointF,PressureIn,WindDirection,WindDirectionDegrees,WindSpeedMPH,WindSpeedGustMPH,Humidity,HourlyPrecipIn,Conditions,Clouds,dailyrainin,SoftwareType,DateUTC
2013-03-07 00:00:00,38.5,17.4,29.92,ENE,65,0.0,6.3,42,0.00,,,0.00,VWS V13.01,2013-03-07 05:00:00,
2013-03-07 00:05:00,38.5,17.4,29.92,West,280,3.6,5.4,42,0.00,,,0.00,VWS V13.01,2013-03-07 05:05:00,
2013-03-07 00:10:00,38.5,17.4,29.92,NNW,339,5.4,7.6,42,0.00,,,0.00,VWS V13.01,2013-03-07 05:10:00,
2013-03-07 00:15:00,38.5,17.4,29.92,SW,228,2.2,7.6,42,0.00,,,0.00,VWS V13.01,2013-03-07 05:15:00,
2013-03-07 00:20:00,38.5,17.4,29.92,West,269,3.6,5.4,42,0.00,,,0.00,VWS V13.01,2013-03-07 05:20:00,
2013-03-07 00:25:00,38.5,17.4,29.92,North,2,2.7,2.7,42,0.00,,,0.00,VWS V13.01,2013-03-07 05:25:00,
2013-03-07 00:30:00,38.5,17.9,29.92,NNW,333,2.7,2.7,43,0.00,,,0.00,VWS V13.01,2013-03-07 05:30:00,
2013-03-07 00:35:00,38.5,17.4,29.92,WNW,286,2.7,2.7,42,0.00,,,0.00,VWS V13.01,2013-03-07 05:35:00,
2013-03-07 00:40:00,38.3,17.2,29.92,NNW,343,0.0,3.6,42,0.00,,,0.00,VWS V13.01,2013-03-07 05:40:00,
2013-03-07 00:45:00,38.3,17.2,29.89,NNE,30,0.0,4.0,42,0.00,,,0.00,VWS V13.01,2013-03-07 05:45:00,
2013-03-07 00:50:00,38.3,17.2,29.89,NE,47,2.7,4.9,42,0.00,,,0.00,VWS V13.01,2013-03-07 05:50:00,
2013-03-07 00:55:00,38.3,17.2,29.89,SW,227,2.7,5.4,42,0.00,,,0.00,VWS V13.01,2013-03-07 05:55:00,
2013-03-07 01:00:00,38.3,17.2,29.92,North,357,2.7,2.7,42,0.00,,,0.00,VWS V13.01,2013-03-07 06:00:00,
2013-03-07 01:05:00,38.3,17.2,29.92,NNW,334,2.2,2.2,42,0.00,,,0.00,VWS V13.01,2013-03-07 06:05:00,
2013-03-07 01:10:00,38.1,17.1,29.92,WNW,290,0.0,4.9,42,0.00,,,0.00,VWS V13.01,2013-03-07 06:10:00,
2013-03-07 01:15:00,38.1,17.1,29.92,West,263,2.2,2.2,42,0.00,,,0.00,VWS V13.01,2013-03-07 06:15:00,
2013-03-07 01:20:00,38.1,17.1,29.92,WNW,298,5.4,5.8,42,0.00,,,0.00,VWS V13.01,2013-03-07 06:20:00,
2013-03-07 01:25:00,38.1,17.1,29.92,WNW,288,2.2,5.8,42,0.00,,,0.00,VWS V13.01,2013-03-07 06:25:00,
2013-03-07 01:30:00,38.1,17.1,29.92,NNW,331,0.0,0.0,42,0.00,,,0.00,VWS V13.01,2013-03-07 06:30:00,
2013-03-07 01:35:00,38.1,17.6,29.92,NNW,332,4.0,5.4,43,0.00,,,0.00,VWS V13.01,2013-03-07 06:35:00,
2013-03-07 01:40:00,38.1,17.1,29.92,NNE,15,2.7,5.8,42,0.00,,,0.00,VWS V13.01,2013-03-07 06:40:00,
2013-03-07 01:45:00,38.1,17.1,29.92,NNW,329,2.7,5.4,42,0.00,,,0.00,VWS V13.01,2013-03-07 06:45:00,
2013-03-07 01:50:00,38.1,17.6,29.92,WNW,295,2.7,4.0,43,0.00,,,0.00,VWS V13.01,2013-03-07 06:50:00,
2013-03-07 01:55:00,37.9,17.5,29.92,WNW,282,3.1,4.9,43,0.00,,,0.00,VWS V13.01,2013-03-07 06:55:00,
2013-03-07 02:00:00,37.9,17.5,29.92,West,279,2.7,2.7,43,0.00,,,0.00,VWS V13.01,2013-03-07 07:00:00,
2013-03-07 02:05:00,37.9,17.5,29.92,ESE,105,4.0,4.0,43,0.00,,,0.00,VWS V13.01,2013-03-07 07:05:00,
2013-03-07 02:10:00,37.9,17.5,29.92,NNW,343,3.1,4.0,43,0.00,,,0.00,VWS V13.01,2013-03-07 07:10:00,
2013-03-07 02:15:00,37.9,17.5,29.92,NNE,24,2.7,4.9,43,0.00,,,0.00,VWS V13.01,2013-03-07 07:15:00,
2013-03-07 02:20:00,37.9,17.5,29.92,NNW,329,3.1,3.1,43,0.00,,,0.00,VWS V13.01,2013-03-07 07:20:00,
2013-03-07 02:25:00,37.9,17.5,29.92,North,359,3.1,5.8,43,0.00,,,0.00,VWS V13.01,2013-03-07 07:25:00,
2013-03-07 02:30:00,37.9,17.5,29.92,North,355,2.7,3.1,43,0.00,,,0.00,VWS V13.01,2013-03-07 07:30:00,
2013-03-07 02:35:00,37.9,17.5,29.92,WSW,251,2.7,4.0,43,0.00,,,0.00,VWS V13.01,2013-03-07 07:35:00,
2013-03-07 02:40:00,37.9,17.5,29.92,NNW,337,2.7,4.0,43,0.00,,,0.00,VWS V13.01,2013-03-07 07:40:00,
2013-03-07 02:45:00,37.9,17.5,29.89,North,350,2.7,5.8,43,0.00,,,0.00,VWS V13.01,2013-03-07 07:45:00,
2013-03-07 02:50:00,37.8,17.8,29.89,North,9,2.7,2.7,44,0.00,,,0.00,VWS V13.01,2013-03-07 07:50:00,
2013-03-07 02:55:00,37.6,18.7,29.89,WNW,282,2.2,4.0,46,0.00,,,0.00,VWS V13.01,2013-03-07 07:55:00,
2013-03-07 03:00:00,37.4,19.0,29.89,ENE,75,3.6,4.0,47,0.00,,,0.00,VWS V13.01,2013-03-07 08:00:00,
2013-03-07 03:05:00,37.2,19.4,29.89,NNW,330,2.2,3.6,48,0.00,,,0.00,VWS V13.01,2013-03-07 08:05:00,
2013-03-07 03:10:00,37.0,19.7,29.89,NNW,335,2.2,2.2,49,0.00,,,0.00,VWS V13.01,2013-03-07 08:10:00,
2013-03-07 03:15:00,37.0,19.2,29.92,NW,310,3.6,6.3,48,0.00,,,0.00,VWS V13.01,2013-03-07 08:15:00,
2013-03-07 03:20:00,37.0,19.2,29.92,SE,144,2.2,2.2,48,0.00,,,0.00,VWS V13.01,2013-03-07 08:20:00,
2013-03-07 03:25:00,37.0,18.7,29.92,North,350,2.7,2.7,47,0.00,,,0.00,VWS V13.01,2013-03-07 08:25:00,
2013-03-07 03:30:00,37.0,18.7,29.92,WNW,298,2.2,2.2,47,0.00,,,0.00,VWS V13.01,2013-03-07 08:30:00,
2013-03-07 03:35:00,37.0,18.2,29.92,NNW,343,0.0,4.9,46,0.00,,,0.00,VWS V13.01,2013-03-07 08:35:00,
2013-03-07 03:40:00,37.0,18.2,29.92,NNW,347,2.7,3.6,46,0.00,,,0.00,VWS V13.01,2013-03-07 08:40:00,
2013-03-07 03:45:00,37.0,17.7,29.92,WNW,299,0.0,0.0,45,0.00,,,0.00,VWS V13.01,2013-03-07 08:45:00,
2013-03-07 03:50:00,37.0,17.7,29.92,NW,312,0.0,4.0,45,0.00,,,0.00,VWS V13.01,2013-03-07 08:50:00,
2013-03-07 03:55:00,37.0,17.7,29.92,NW,309,2.7,4.0,45,0.00,,,0.00,VWS V13.01,2013-03-07 08:55:00,
2013-03-07 04:00:00,37.0,17.2,29.92,NNW,334,0.0,0.0,44,0.00,,,0.00,VWS V13.01,2013-03-07 09:00:00,
2013-03-07 04:05:00,37.0,17.7,29.92,WNW,294,3.6,3.6,45,0.00,,,0.00,VWS V13.01,2013-03-07 09:05:00,
2013-03-07 04:10:00,37.0,17.7,29.92,SSW,212,2.2,4.9,45,0.00,,,0.00,VWS V13.01,2013-03-07 09:10:00,
2013-03-07 04:15:00,37.0,17.7,29.95,NNW,329,2.7,2.7,45,0.00,,,0.00,VWS V13.01,2013-03-07 09:15:00,
2013-03-07 04:20:00,36.9,17.5,29.95,ENE,64,3.1,3.6,45,0.00,,,0.00,VWS V13.01,2013-03-07 09:20:00,
2013-03-07 04:25:00,36.9,17.5,29.95,NNE,21,3.1,3.1,45,0.00,,,0.00,VWS V13.01,2013-03-07 09:25:00,
2013-03-07 04:30:00,36.9,18.0,29.95,WNW,293,3.1,3.1,46,0.00,,,0.00,VWS V13.01,2013-03-07 09:30:00,
2013-03-07 04:35:00,36.7,18.4,29.95,NNW,340,0.0,0.0,47,0.00,,,0.00,VWS V13.01,2013-03-07 09:35:00,
2013-03-07 04:40:00,36.7,18.4,29.95,NW,307,2.2,3.6,47,0.00,,,0.00,VWS V13.01,2013-03-07 09:40:00,
2013-03-07 04:45:00,36.7,18.4,29.95,NNW,348,2.7,2.7,47,0.00,,,0.00,VWS V13.01,2013-03-07 09:45:00,
2013-03-07 04:50:00,36.7,18.4,29.95,West,275,0.0,2.7,47,0.00,,,0.00,VWS V13.01,2013-03-07 09:50:00,
2013-03-07 04:55:00,36.7,18.4,29.95,NW,308,0.0,0.0,47,0.00,,,0.00,VWS V13.01,2013-03-07 09:55:00,
2013-03-07 05:00:00,36.7,18.9,29.95,NNE,29,2.7,3.6,48,0.00,,,0.00,VWS V13.01,2013-03-07 10:00:00,
2013-03-07 05:05:00,36.5,19.2,29.95,NNE,25,0.0,0.0,49,0.00,,,0.00,VWS V13.01,2013-03-07 10:05:00,
2013-03-07 05:10:00,36.3,19.5,29.95,NNE,15,2.2,3.1,50,0.00,,,0.00,VWS V13.01,2013-03-07 10:10:00,
2013-03-07 05:15:00,36.1,19.3,29.95,NNE,27,0.0,2.7,50,0.00,,,0.00,VWS V13.01,2013-03-07 10:15:00,
2013-03-07 05:21:00,36.1,19.8,29.95,WSW,254,0.0,0.0,51,0.00,,,0.00,VWS V13.01,2013-03-07 10:21:00,
2013-03-07 05:26:00,36.1,19.8,29.95,NW,323,0.0,0.0,51,0.00,,,0.00,VWS V13.01,2013-03-07 10:26:00,
2013-03-07 05:31:00,36.0,19.6,29.98,North,2,5.4,5.4,51,0.00,,,0.00,VWS V13.01,2013-03-07 10:31:00,
2013-03-07 05:36:00,35.8,19.4,29.98,WSW,255,0.0,0.0,51,0.00,,,0.00,VWS V13.01,2013-03-07 10:36:00,
2013-03-07 05:41:00,35.8,19.4,29.98,WNW,295,2.2,2.2,51,0.00,,,0.00,VWS V13.01,2013-03-07 10:41:00,
2013-03-07 05:46:00,35.8,19.4,29.98,North,1,2.7,3.6,51,0.00,,,0.00,VWS V13.01,2013-03-07 10:46:00,
2013-03-07 05:51:00,35.8,19.4,29.98,SW,225,0.0,2.7,51,0.00,,,0.00,VWS V13.01,2013-03-07 10:51:00,
2013-03-07 05:56:00,35.6,18.8,29.98,WSW,246,3.1,3.6,50,0.00,,,0.00,VWS V13.01,2013-03-07 10:56:00,
2013-03-07 06:01:00,35.6,18.8,29.98,North,349,0.0,3.1,50,0.00,,,0.00,VWS V13.01,2013-03-07 11:01:00,
2013-03-07 06:06:00,35.8,19.0,29.98,WNW,284,0.0,2.7,50,0.00,,,0.00,VWS V13.01,2013-03-07 11:06:00,
2013-03-07 06:11:00,35.8,19.0,29.98,NW,316,0.0,3.1,50,0.00,,,0.00,VWS V13.01,2013-03-07 11:11:00,
2013-03-07 06:16:00,35.8,19.0,29.98,NNW,348,0.0,4.0,50,0.00,,,0.00,VWS V13.01,2013-03-07 11:16:00,
2013-03-07 06:21:00,35.8,19.0,29.98,North,359,2.2,3.1,50,0.00,,,0.00,VWS V13.01,2013-03-07 11:21:00,
2013-03-07 06:26:00,35.8,19.0,29.98,NNW,338,0.0,3.1,50,0.00,,,0.00,VWS V13.01,2013-03-07 11:26:00,
2013-03-07 06:31:00,35.8,19.0,29.98,NNW,346,4.5,4.5,50,0.00,,,0.00,VWS V13.01,2013-03-07 11:31:00,
2013-03-07 06:36:00,35.8,19.0,29.98,West,266,0.0,4.0,50,0.00,,,0.00,VWS V13.01,2013-03-07 11:36:00,
2013-03-07 06:42:00,35.8,19.0,29.98,North,7,2.7,2.7,50,0.00,,,0.00,VWS V13.01,2013-03-07 11:42:00,
2013-03-07 06:46:00,35.8,19.0,29.98,WNW,297,0.0,2.7,50,0.00,,,0.00,VWS V13.01,2013-03-07 11:46:00,
2013-03-07 06:52:00,35.8,18.5,29.98,North,349,0.0,3.6,49,0.00,,,0.00,VWS V13.01,2013-03-07 11:52:00,
2013-03-07 06:57:00,35.8,19.0,29.98,North,353,2.7,2.7,50,0.00,,,0.00,VWS V13.01,2013-03-07 11:57:00,
2013-03-07 07:02:00,35.8,18.0,29.98,NNW,341,2.7,4.0,48,0.00,,,0.00,VWS V13.01,2013-03-07 12:02:00,
2013-03-07 07:07:00,35.8,18.5,29.98,NNW,336,2.2,2.7,49,0.00,,,0.00,VWS V13.01,2013-03-07 12:07:00,
2013-03-07 07:12:00,35.8,18.0,29.98,WNW,301,2.2,3.1,48,0.00,,,0.00,VWS V13.01,2013-03-07 12:12:00,
2013-03-07 07:17:00,35.8,18.0,29.98,WNW,294,2.2,3.6,48,0.00,,,0.00,VWS V13.01,2013-03-07 12:17:00,
2013-03-07 07:22:00,36.0,18.2,29.98,North,350,2.7,2.7,48,0.00,,,0.00,VWS V13.01,2013-03-07 12:22:00,
2013-03-07 07:27:00,36.0,17.7,29.98,NNW,332,0.0,3.1,47,0.00,,,0.00,VWS V13.01,2013-03-07 12:27:00,
2013-03-07 07:32:00,36.0,18.2,29.98,WNW,284,2.2,3.6,48,0.00,,,0.00,VWS V13.01,2013-03-07 12:32:00,
2013-03-07 07:37:00,36.1,18.8,29.98,North,354,2.7,3.6,49,0.00,,,0.00,VWS V13.01,2013-03-07 12:37:00,
2013-03-07 07:42:00,36.1,19.3,29.98,NW,304,0.0,3.1,50,0.00,,,0.00,VWS V13.01,2013-03-07 12:42:00,
2013-03-07 07:47:00,36.1,19.3,30.01,NNW,335,2.2,4.9,50,0.00,,,0.00,VWS V13.01,2013-03-07 12:47:00,
2013-03-07 07:51:00,36.1,19.8,30.01,NNW,337,0.0,2.7,51,0.00,,,0.00,VWS V13.01,2013-03-07 12:51:00,
2013-03-07 07:57:00,36.0,19.6,30.01,NNW,333,0.0,4.0,51,0.00,,,0.00,VWS V13.01,2013-03-07 12:57:00,
2013-03-07 08:02:00,36.0,20.1,30.01,NW,321,0.0,3.6,52,0.00,,,0.00,VWS V13.01,2013-03-07 13:02:00,
2013-03-07 08:07:00,35.8,19.9,30.01,West,279,6.3,6.3,52,0.00,,,0.00,VWS V13.01,2013-03-07 13:07:00,
2013-03-07 08:12:00,35.8,20.3,30.01,NW,313,0.0,0.0,53,0.00,,,0.00,VWS V13.01,2013-03-07 13:12:00,
2013-03-07 08:17:00,35.8,20.8,30.01,NNW,338,2.2,5.8,54,0.00,,,0.00,VWS V13.01,2013-03-07 13:17:00,
2013-03-07 08:22:00,36.0,21.0,30.01,NW,325,3.1,3.1,54,0.00,,,0.00,VWS V13.01,2013-03-07 13:22:00,
2013-03-07 08:27:00,36.0,20.5,30.01,North,353,0.0,3.6,53,0.00,,,0.00,VWS V13.01,2013-03-07 13:27:00,
2013-03-07 08:32:00,36.0,21.0,30.01,NNW,330,0.0,3.6,54,0.00,,,0.00,VWS V13.01,2013-03-07 13:32:00,
2013-03-07 08:37:00,36.1,21.5,30.01,SW,235,3.1,3.1,55,0.00,,,0.00,VWS V13.01,2013-03-07 13:37:00,
2013-03-07 08:42:00,36.0,21.4,30.01,SW,230,0.0,3.1,55,0.00,,,0.00,VWS V13.01,2013-03-07 13:42:00,
2013-03-07 08:47:00,36.0,21.4,30.01,WSW,253,3.6,4.0,55,0.00,,,0.00,VWS V13.01,2013-03-07 13:47:00,
2013-03-07 08:52:00,36.0,21.8,30.01,NNW,341,0.0,5.4,56,0.00,,,0.00,VWS V13.01,2013-03-07 13:52:00,
2013-03-07 08:57:00,35.8,22.9,30.01,SW,231,3.1,3.1,59,0.00,,,0.00,VWS V13.01,2013-03-07 13:57:00,
2013-03-07 09:02:00,35.4,22.5,30.01,WSW,256,2.7,2.7,59,0.00,,,0.00,VWS V13.01,2013-03-07 14:02:00,
2013-03-07 09:07:00,35.4,24.1,30.01,SW,228,2.7,2.7,63,0.00,,,0.00,VWS V13.01,2013-03-07 14:07:00,
2013-03-07 09:12:00,35.1,24.9,30.01,North,357,2.7,3.1,66,0.00,,,0.00,VWS V13.01,2013-03-07 14:12:00,
2013-03-07 09:17:00,35.1,25.6,30.01,WSW,258,0.0,2.7,68,0.00,,,0.00,VWS V13.01,2013-03-07 14:17:00,
2013-03-07 09:22:00,35.2,24.7,30.01,West,281,2.7,4.9,65,0.00,,,0.00,VWS V13.01,2013-03-07 14:22:00,
2013-03-07 09:27:00,35.6,23.9,30.01,NNW,330,4.0,4.0,62,0.00,,,0.00,VWS V13.01,2013-03-07 14:27:00,
2013-03-07 09:33:00,36.0,23.8,30.01,NW,322,0.0,3.6,61,0.00,,,0.00,VWS V13.01,2013-03-07 14:33:00,
2013-03-07 09:38:00,36.3,23.8,30.01,NNW,345,2.2,3.1,60,0.00,,,0.00,VWS V13.01,2013-03-07 14:38:00,
2013-03-07 09:43:00,36.7,22.0,30.01,NNW,341,2.7,4.0,55,0.00,,,0.00,VWS V13.01,2013-03-07 14:43:00,
2013-03-07 09:48:00,37.2,22.6,30.01,North,349,3.6,4.0,55,0.00,,,0.00,VWS V13.01,2013-03-07 14:48:00,
2013-03-07 09:53:00,37.8,23.1,30.01,NW,321,0.0,3.6,55,0.00,,,0.00,VWS V13.01,2013-03-07 14:53:00,
2013-03-07 09:58:00,37.9,21.4,30.01,NNE,32,2.2,4.9,51,0.00,,,0.00,VWS V13.01,2013-03-07 14:58:00,
2013-03-07 10:03:00,38.1,22.1,30.01,NW,325,0.0,3.6,52,0.00,,,0.00,VWS V13.01,2013-03-07 15:03:00,
2013-03-07 10:08:00,38.3,21.3,30.01,WNW,286,3.1,4.9,50,0.00,,,0.00,VWS V13.01,2013-03-07 15:08:00,
2013-03-07 10:13:00,38.3,21.8,30.01,NW,304,3.1,3.6,51,0.00,,,0.00,VWS V13.01,2013-03-07 15:13:00,
2013-03-07 10:18:00,38.5,22.4,30.01,NW,311,2.2,3.6,52,0.00,,,0.00,VWS V13.01,2013-03-07 15:18:00,
2013-03-07 10:23:00,38.5,21.5,30.01,West,264,2.2,3.1,50,0.00,,,0.00,VWS V13.01,2013-03-07 15:23:00,
2013-03-07 10:28:00,38.5,22.4,30.01,NNW,335,0.0,2.2,52,0.00,,,0.00,VWS V13.01,2013-03-07 15:28:00,
2013-03-07 10:33:00,38.7,21.6,30.01,North,358,0.0,3.1,50,0.00,,,0.00,VWS V13.01,2013-03-07 15:33:00,
2013-03-07 10:38:00,38.7,22.1,30.01,NNW,347,2.2,2.7,51,0.00,,,0.00,VWS V13.01,2013-03-07 15:38:00,
2013-03-07 10:43:00,38.7,21.6,30.01,NNW,346,3.6,3.6,50,0.00,,,0.00,VWS V13.01,2013-03-07 15:43:00,
2013-03-07 10:48:00,38.7,21.6,30.01,NNW,337,0.0,3.1,50,0.00,,,0.00,VWS V13.01,2013-03-07 15:48:00,
2013-03-07 10:54:00,39.0,22.9,30.01,NNW,336,0.0,2.2,52,0.00,,,0.00,VWS V13.01,2013-03-07 15:54:00,
2013-03-07 10:59:00,39.4,22.8,30.01,NNW,347,2.2,3.6,51,0.00,,,0.00,VWS V13.01,2013-03-07 15:59:00,
2013-03-07 11:04:00,39.2,21.7,30.01,WNW,296,0.0,4.0,49,0.00,,,0.00,VWS V13.01,2013-03-07 16:04:00,
2013-03-07 11:09:00,38.8,21.8,30.01,North,353,3.1,3.1,50,2.47,,,2.47,VWS V13.01,2013-03-07 16:09:00,
2013-03-07 11:10:00,38.8,21.8,30.01,NNW,342,2.2,3.1,50,2.47,,,2.47,VWS V13.01,2013-03-07 16:10:00,
2013-03-07 11:14:00,39.4,22.3,30.01,NW,326,3.6,3.6,50,2.47,,,2.47,VWS V13.01,2013-03-07 16:14:00,
2013-03-07 11:15:00,39.4,22.3,30.01,NNE,17,2.2,3.6,50,2.47,,,2.47,VWS V13.01,2013-03-07 16:15:00,
2013-03-07 11:20:00,39.2,22.6,30.01,NNW,342,0.0,3.1,51,2.47,,,2.47,VWS V13.01,2013-03-07 16:20:00,
2013-03-07 11:25:00,39.2,22.1,30.01,SE,129,2.2,4.0,50,2.47,,,2.47,VWS V13.01,2013-03-07 16:25:00,
2013-03-07 11:30:00,39.2,21.7,30.04,NNW,329,0.0,3.6,49,2.47,,,2.47,VWS V13.01,2013-03-07 16:30:00,
2013-03-07 11:35:00,39.4,21.8,30.04,West,259,0.0,3.1,49,2.47,,,2.47,VWS V13.01,2013-03-07 16:35:00,
2013-03-07 11:40:00,39.4,21.8,30.04,NNW,335,2.2,3.1,49,2.47,,,2.47,VWS V13.01,2013-03-07 16:40:00,
2013-03-07 11:45:00,39.6,22.0,30.04,NNW,344,0.0,4.0,49,2.47,,,2.47,VWS V13.01,2013-03-07 16:45:00,
2013-03-07 11:50:00,39.2,21.7,30.04,WSW,243,2.2,4.9,49,2.47,,,2.47,VWS V13.01,2013-03-07 16:50:00,
2013-03-07 11:55:00,39.2,23.1,30.04,NNW,342,2.2,3.6,52,2.47,,,2.47,VWS V13.01,2013-03-07 16:55:00,
2013-03-07 12:00:00,39.0,23.4,30.04,WNW,298,0.0,6.3,53,2.47,,,2.47,VWS V13.01,2013-03-07 17:00:00,
2013-03-07 12:04:00,38.8,23.2,30.01,North,351,0.0,4.0,53,2.47,,,2.47,VWS V13.01,2013-03-07 17:04:00,
2013-03-07 12:05:00,38.8,23.2,30.01,NNW,334,0.0,4.0,53,2.47,,,2.47,VWS V13.01,2013-03-07 17:05:00,
2013-03-07 12:09:00,38.3,22.7,30.01,NW,319,0.0,5.4,53,2.47,,,2.47,VWS V13.01,2013-03-07 17:09:00,
2013-03-07 12:10:00,38.5,23.3,30.01,NW,319,0.0,5.4,54,2.47,,,2.47,VWS V13.01,2013-03-07 17:10:00,
2013-03-07 12:15:00,38.8,25.8,30.01,NNW,347,2.2,2.7,59,0.00,,,2.47,VWS V13.01,2013-03-07 17:15:00,
2013-03-07 12:20:00,39.0,24.7,30.01,SW,218,3.6,3.6,56,0.00,,,2.47,VWS V13.01,2013-03-07 17:20:00,
2013-03-07 12:25:00,39.2,24.4,30.01,WNW,303,0.0,3.6,55,0.00,,,2.47,VWS V13.01,2013-03-07 17:25:00,
2013-03-07 12:30:00,39.2,24.0,30.01,West,278,0.0,3.1,54,0.00,,,2.47,VWS V13.01,2013-03-07 17:30:00,
2013-03-07 12:34:00,39.6,23.9,30.01,NNW,339,0.0,4.0,53,0.00,,,2.47,VWS V13.01,2013-03-07 17:34:00,
2013-03-07 12:35:00,39.6,23.9,30.01,WSW,255,2.7,4.0,53,0.00,,,2.47,VWS V13.01,2013-03-07 17:35:00,
2013-03-07 12:39:00,39.7,24.5,30.01,West,263,2.7,3.6,54,0.00,,,2.47,VWS V13.01,2013-03-07 17:39:00,
2013-03-07 12:40:00,39.7,24.5,30.01,WSW,254,2.7,3.6,54,0.00,,,2.47,VWS V13.01,2013-03-07 17:40:00,
2013-03-07 12:44:00,39.7,24.9,30.01,West,263,0.0,3.6,55,0.00,,,2.47,VWS V13.01,2013-03-07 17:44:00,
2013-03-07 12:45:00,39.7,24.5,30.01,West,263,0.0,3.6,54,0.00,,,2.47,VWS V13.01,2013-03-07 17:45:00,
2013-03-07 12:49:00,39.2,24.8,30.01,NW,319,0.0,4.0,56,0.00,,,2.47,VWS V13.01,2013-03-07 17:49:00,
2013-03-07 12:50:00,39.2,24.8,30.01,NNE,18,2.7,4.0,56,0.00,,,2.47,VWS V13.01,2013-03-07 17:50:00,
2013-03-07 12:56:00,39.2,26.1,30.01,NNW,339,2.2,2.2,59,0.00,,,2.47,VWS V13.01,2013-03-07 17:56:00,
2013-03-07 13:01:00,39.2,26.1,30.01,WNW,283,0.0,3.1,59,2.47,,,4.94,VWS V13.01,2013-03-07 18:01:00,
2013-03-07 13:06:00,39.0,25.9,30.01,North,357,0.0,3.6,59,2.47,,,4.94,VWS V13.01,2013-03-07 18:06:00,
2013-03-07 13:11:00,38.7,26.4,30.01,West,266,0.0,3.1,61,2.47,,,4.94,VWS V13.01,2013-03-07 18:11:00,
2013-03-07 13:16:00,38.8,28.1,30.01,North,357,0.0,0.0,65,2.47,,,4.94,VWS V13.01,2013-03-07 18:16:00,
2013-03-07 13:21:00,38.7,27.9,30.01,SW,219,0.0,2.7,65,2.47,,,4.94,VWS V13.01,2013-03-07 18:21:00,
2013-03-07 13:26:00,38.8,28.1,30.01,WSW,257,0.0,0.0,65,2.47,,,4.94,VWS V13.01,2013-03-07 18:26:00,
2013-03-07 13:31:00,38.8,28.1,30.01,NNW,348,0.0,3.1,65,2.47,,,4.94,VWS V13.01,2013-03-07 18:31:00,
2013-03-07 13:36:00,38.7,28.7,30.01,North,6,0.0,3.6,67,2.47,,,4.94,VWS V13.01,2013-03-07 18:36:00,
2013-03-07 13:41:00,38.7,29.4,30.01,North,5,0.0,0.0,69,2.47,,,4.94,VWS V13.01,2013-03-07 18:41:00,
2013-03-07 13:46:00,38.7,29.4,30.01,NNW,347,0.0,0.0,69,2.47,,,4.94,VWS V13.01,2013-03-07 18:46:00,
2013-03-07 13:51:00,38.7,29.4,30.01,North,350,0.0,0.0,69,2.47,,,4.94,VWS V13.01,2013-03-07 18:51:00,
2013-03-07 13:56:00,38.8,30.3,30.01,North,350,0.0,0.0,71,2.47,,,4.94,VWS V13.01,2013-03-07 18:56:00,
2013-03-07 14:02:00,39.2,31.0,30.01,North,350,0.0,0.0,72,0.00,,,4.94,VWS V13.01,2013-03-07 19:02:00,
2013-03-07 14:07:00,39.4,30.4,30.01,West,261,0.0,2.2,70,0.00,,,4.94,VWS V13.01,2013-03-07 19:07:00,
2013-03-07 14:12:00,39.4,30.1,30.01,West,261,0.0,0.0,69,0.00,,,4.94,VWS V13.01,2013-03-07 19:12:00,
2013-03-07 14:17:00,39.4,30.4,30.01,WNW,287,0.0,2.7,70,0.00,,,4.94,VWS V13.01,2013-03-07 19:17:00,
2013-03-07 14:22:00,39.6,30.6,30.01,West,260,0.0,0.0,70,0.00,,,4.94,VWS V13.01,2013-03-07 19:22:00,
2013-03-07 14:27:00,39.4,29.7,30.01,West,277,0.0,0.0,68,0.00,,,4.94,VWS V13.01,2013-03-07 19:27:00,
2013-03-07 14:32:00,39.4,29.7,30.04,North,1,4.0,4.0,68,0.00,,,4.94,VWS V13.01,2013-03-07 19:32:00,
2013-03-07 14:37:00,39.2,29.9,30.04,NW,323,0.0,0.0,69,0.00,,,4.94,VWS V13.01,2013-03-07 19:37:00,
2013-03-07 14:42:00,39.0,30.4,30.04,NW,322,0.0,2.2,71,0.00,,,4.94,VWS V13.01,2013-03-07 19:42:00,
2013-03-07 14:47:00,39.0,30.8,30.04,NW,321,0.0,0.0,72,0.00,,,4.94,VWS V13.01,2013-03-07 19:47:00,
2013-03-07 14:52:00,38.7,30.1,30.04,NW,325,2.2,2.7,71,0.00,,,4.94,VWS V13.01,2013-03-07 19:52:00,
2013-03-07 14:57:00,38.8,30.6,30.04,SW,219,0.0,3.1,72,0.00,,,4.94,VWS V13.01,2013-03-07 19:57:00,
2013-03-07 15:02:00,38.5,30.2,30.04,NW,318,0.0,0.0,72,0.00,,,4.94,VWS V13.01,2013-03-07 20:02:00,
2013-03-07 15:07:00,38.5,30.9,30.04,North,349,3.1,3.6,74,0.00,,,4.94,VWS V13.01,2013-03-07 20:07:00,
2013-03-07 15:12:00,38.5,30.9,30.04,North,349,0.0,0.0,74,0.00,,,4.94,VWS V13.01,2013-03-07 20:12:00,
2013-03-07 15:17:00,38.3,31.1,30.04,NNW,346,0.0,0.0,75,0.00,,,4.94,VWS V13.01,2013-03-07 20:17:00,
2013-03-07 15:22:00,38.1,30.9,30.04,NNW,329,0.0,0.0,75,0.00,,,4.94,VWS V13.01,2013-03-07 20:22:00,
2013-03-07 15:27:00,38.3,31.1,30.04,NNW,329,0.0,0.0,75,0.00,,,4.94,VWS V13.01,2013-03-07 20:27:00,
2013-03-07 15:33:00,38.3,31.4,30.04,NNW,329,0.0,0.0,76,0.00,,,4.94,VWS V13.01,2013-03-07 20:33:00,
2013-03-07 15:38:00,38.3,31.4,30.04,West,262,0.0,2.2,76,0.00,,,4.94,VWS V13.01,2013-03-07 20:38:00,
2013-03-07 15:43:00,38.3,31.7,30.04,West,262,0.0,0.0,77,0.00,,,4.94,VWS V13.01,2013-03-07 20:43:00,
2013-03-07 15:48:00,38.3,31.7,30.04,West,262,0.0,0.0,77,0.00,,,4.94,VWS V13.01,2013-03-07 20:48:00,
2013-03-07 15:53:00,38.3,31.7,30.04,NNW,336,0.0,2.2,77,0.00,,,4.94,VWS V13.01,2013-03-07 20:53:00,
2013-03-07 15:58:00,38.1,31.6,30.04,NNW,336,0.0,2.2,77,0.00,,,4.94,VWS V13.01,2013-03-07 20:58:00,
2013-03-07 16:03:00,38.1,31.2,30.04,SSE,152,0.0,2.7,76,0.00,,,4.94,VWS V13.01,2013-03-07 21:03:00,
2013-03-07 16:08:00,37.9,31.4,30.04,SSE,152,0.0,0.0,77,0.00,,,4.94,VWS V13.01,2013-03-07 21:08:00,
2013-03-07 16:13:00,37.6,31.0,30.04,SSE,152,0.0,2.2,77,0.00,,,4.94,VWS V13.01,2013-03-07 21:13:00,
2013-03-07 16:18:00,37.6,31.0,30.04,SSE,152,0.0,0.0,77,0.00,,,4.94,VWS V13.01,2013-03-07 21:18:00,
2013-03-07 16:23:00,37.4,30.9,30.04,SSE,152,0.0,2.2,77,0.00,,,4.94,VWS V13.01,2013-03-07 21:23:00,
2013-03-07 16:28:00,37.0,30.8,30.04,SSE,152,0.0,0.0,78,0.00,,,4.94,VWS V13.01,2013-03-07 21:28:00,
2013-03-07 16:33:00,37.0,30.8,30.07,SSE,152,0.0,0.0,78,0.00,,,4.94,VWS V13.01,2013-03-07 21:33:00,
2013-03-07 16:38:00,36.9,31.0,30.07,SSE,152,0.0,0.0,79,0.00,,,4.94,VWS V13.01,2013-03-07 21:38:00,
2013-03-07 16:43:00,36.9,31.0,30.07,SSE,151,0.0,2.7,79,0.00,,,4.94,VWS V13.01,2013-03-07 21:43:00,
2013-03-07 16:48:00,36.9,31.3,30.07,SSE,151,0.0,0.0,80,0.00,,,4.94,VWS V13.01,2013-03-07 21:48:00,
2013-03-07 16:53:00,36.9,31.3,30.07,SSE,151,0.0,2.7,80,0.00,,,4.94,VWS V13.01,2013-03-07 21:53:00,
2013-03-07 16:58:00,36.9,31.3,30.07,SSE,151,0.0,0.0,80,0.00,,,4.94,VWS V13.01,2013-03-07 21:58:00,
2013-03-07 17:03:00,36.9,31.3,30.07,SSE,151,0.0,0.0,80,0.00,,,4.94,VWS V13.01,2013-03-07 22:03:00,
2013-03-07 17:08:00,36.9,31.3,30.07,SSE,151,0.0,0.0,80,0.00,,,4.94,VWS V13.01,2013-03-07 22:08:00,
2013-03-07 17:13:00,36.7,31.1,30.07,West,281,3.6,3.6,80,0.00,,,4.94,VWS V13.01,2013-03-07 22:13:00,
2013-03-07 17:18:00,36.7,30.8,30.07,West,281,0.0,2.2,79,0.00,,,4.94,VWS V13.01,2013-03-07 22:18:00,
2013-03-07 17:23:00,36.7,30.5,30.07,WNW,290,0.0,2.2,78,0.00,,,4.94,VWS V13.01,2013-03-07 22:23:00,
2013-03-07 17:28:00,36.5,30.3,30.07,WNW,291,0.0,0.0,78,0.00,,,4.94,VWS V13.01,2013-03-07 22:28:00,
2013-03-07 17:33:00,36.5,30.3,30.07,WNW,291,0.0,2.7,78,0.00,,,4.94,VWS V13.01,2013-03-07 22:33:00,
2013-03-07 17:38:00,36.5,30.3,30.07,WNW,291,0.0,0.0,78,0.00,,,4.94,VWS V13.01,2013-03-07 22:38:00,
2013-03-07 17:43:00,36.3,30.1,30.07,WNW,292,0.0,2.7,78,0.00,,,4.94,VWS V13.01,2013-03-07 22:43:00,
2013-03-07 17:48:00,36.1,30.0,30.07,WNW,292,0.0,0.0,78,0.00,,,4.94,VWS V13.01,2013-03-07 22:48:00,
2013-03-07 17:53:00,36.1,30.0,30.07,WNW,292,0.0,2.7,78,0.00,,,4.94,VWS V13.01,2013-03-07 22:53:00,
2013-03-07 17:58:00,36.1,30.0,30.07,WSW,257,0.0,3.6,78,0.00,,,4.94,VWS V13.01,2013-03-07 22:58:00,
2013-03-07 18:03:00,36.0,29.8,30.07,North,352,0.0,2.7,78,0.00,,,4.94,VWS V13.01,2013-03-07 23:03:00,
2013-03-07 18:09:00,35.8,29.6,30.07,North,352,0.0,2.2,78,0.00,,,4.94,VWS V13.01,2013-03-07 23:09:00,
2013-03-07 18:14:00,35.8,29.9,30.07,North,352,0.0,0.0,79,0.00,,,4.94,VWS V13.01,2013-03-07 23:14:00,
2013-03-07 18:19:00,35.8,29.9,30.07,North,352,0.0,0.0,79,0.00,,,4.94,VWS V13.01,2013-03-07 23:19:00,
2013-03-07 18:24:00,35.6,29.7,30.07,North,352,0.0,2.7,79,0.00,,,4.94,VWS V13.01,2013-03-07 23:24:00,
2013-03-07 18:29:00,35.6,29.7,30.07,North,352,0.0,0.0,79,0.00,,,4.94,VWS V13.01,2013-03-07 23:29:00,
2013-03-07 18:34:00,35.6,30.0,30.07,NNW,339,2.7,4.0,80,0.00,,,4.94,VWS V13.01,2013-03-07 23:34:00,
2013-03-07 18:39:00,35.4,29.9,30.07,NW,325,0.0,0.0,80,0.00,,,4.94,VWS V13.01,2013-03-07 23:39:00,
2013-03-07 18:44:00,35.4,29.9,30.07,NW,320,0.0,2.7,80,0.00,,,4.94,VWS V13.01,2013-03-07 23:44:00,
2013-03-07 18:49:00,35.2,30.0,30.07,NW,320,0.0,0.0,81,0.00,,,4.94,VWS V13.01,2013-03-07 23:49:00,
2013-03-07 18:54:00,35.2,30.0,30.07,NW,320,0.0,2.2,81,0.00,,,4.94,VWS V13.01,2013-03-07 23:54:00,
2013-03-07 18:59:00,35.2,30.0,30.07,NNW,332,0.0,3.6,81,0.00,,,4.94,VWS V13.01,2013-03-07 23:59:00,
2013-03-07 19:04:00,35.2,30.0,30.07,NNW,332,2.2,2.7,81,0.00,,,4.94,VWS V13.01,2013-03-08 00:04:00,
2013-03-07 19:09:00,35.2,29.7,30.07,NNW,332,0.0,2.7,80,0.00,,,4.94,VWS V13.01,2013-03-08 00:09:00,
2013-03-07 19:14:00,35.2,30.0,30.07,WSW,256,0.0,3.1,81,0.00,,,4.94,VWS V13.01,2013-03-08 00:14:00,
2013-03-07 19:19:00,35.2,30.0,30.10,WSW,256,0.0,0.0,81,0.00,,,4.94,VWS V13.01,2013-03-08 00:19:00,
2013-03-07 19:24:00,35.2,30.0,30.10,WNW,287,0.0,3.1,81,0.00,,,4.94,VWS V13.01,2013-03-08 00:24:00,
2013-03-07 19:29:00,35.2,30.3,30.10,WNW,287,0.0,0.0,82,0.00,,,4.94,VWS V13.01,2013-03-08 00:29:00,
2013-03-07 19:34:00,35.1,30.1,30.07,WNW,286,0.0,0.0,82,0.00,,,4.94,VWS V13.01,2013-03-08 00:34:00,
2013-03-07 19:39:00,35.1,30.1,30.07,WNW,287,0.0,0.0,82,0.00,,,4.94,VWS V13.01,2013-03-08 00:39:00,
2013-03-07 19:44:00,35.1,30.1,30.07,WNW,293,0.0,2.2,82,0.00,,,4.94,VWS V13.01,2013-03-08 00:44:00,
2013-03-07 19:49:00,35.1,30.1,30.07,WNW,293,0.0,0.0,82,0.00,,,4.94,VWS V13.01,2013-03-08 00:49:00,
2013-03-07 19:54:00,35.1,30.4,30.07,WNW,293,0.0,0.0,83,0.00,,,4.94,VWS V13.01,2013-03-08 00:54:00,
2013-03-07 19:59:00,35.1,30.1,30.07,WNW,293,0.0,2.7,82,0.00,,,4.94,VWS V13.01,2013-03-08 00:59:00,
2013-03-07 20:04:00,35.1,30.1,30.07,WNW,293,0.0,2.7,82,0.00,,,4.94,VWS V13.01,2013-03-08 01:04:00,
2013-03-07 20:09:00,35.1,30.1,30.07,WNW,293,0.0,2.7,82,0.00,,,4.94,VWS V13.01,2013-03-08 01:09:00,
2013-03-07 20:14:00,35.1,29.8,30.07,NW,312,2.2,3.1,81,0.00,,,4.94,VWS V13.01,2013-03-08 01:14:00,
2013-03-07 20:19:00,35.1,29.8,30.07,WNW,296,0.0,3.6,81,0.00,,,4.94,VWS V13.01,2013-03-08 01:19:00,
2013-03-07 20:24:00,35.1,29.8,30.07,WNW,297,0.0,2.2,81,0.00,,,4.94,VWS V13.01,2013-03-08 01:24:00,
2013-03-07 20:29:00,35.2,30.0,30.07,WNW,297,0.0,2.7,81,0.00,,,4.94,VWS V13.01,2013-03-08 01:29:00,
2013-03-07 20:34:00,35.2,30.0,30.07,WNW,297,0.0,0.0,81,0.00,,,4.94,VWS V13.01,2013-03-08 01:34:00,
2013-03-07 20:39:00,35.1,30.1,30.07,WNW,297,0.0,0.0,82,0.00,,,4.94,VWS V13.01,2013-03-08 01:39:00,
2013-03-07 20:44:00,35.1,30.1,30.07,WNW,297,0.0,0.0,82,0.00,,,4.94,VWS V13.01,2013-03-08 01:44:00,
2013-03-07 20:49:00,35.1,30.1,30.07,WNW,297,0.0,0.0,82,0.00,,,4.94,VWS V13.01,2013-03-08 01:49:00,
2013-03-07 20:54:00,35.1,30.1,30.07,WNW,297,0.0,0.0,82,0.00,,,4.94,VWS V13.01,2013-03-08 01:54:00,
2013-03-07 20:59:00,35.1,30.1,30.07,WNW,297,0.0,0.0,82,0.00,,,4.94,VWS V13.01,2013-03-08 01:59:00,
2013-03-07 21:04:00,35.1,30.1,30.07,WNW,297,0.0,2.2,82,0.00,,,4.94,VWS V13.01,2013-03-08 02:04:00,
2013-03-07 21:09:00,34.9,30.0,30.07,WNW,297,0.0,0.0,82,0.00,,,4.94,VWS V13.01,2013-03-08 02:09:00,
2013-03-07 21:14:00,34.9,30.2,30.07,WNW,297,0.0,0.0,83,0.00,,,4.94,VWS V13.01,2013-03-08 02:14:00,
2013-03-07 21:19:00,34.9,30.2,30.07,WNW,297,0.0,0.0,83,0.00,,,4.94,VWS V13.01,2013-03-08 02:19:00,
2013-03-07 21:24:00,34.9,30.2,30.07,WNW,299,0.0,2.7,83,0.00,,,4.94,VWS V13.01,2013-03-08 02:24:00,
2013-03-07 21:29:00,34.9,30.2,30.07,WNW,299,0.0,0.0,83,0.00,,,4.94,VWS V13.01,2013-03-08 02:29:00,
2013-03-07 21:34:00,34.9,30.2,30.07,WNW,299,0.0,0.0,83,0.00,,,4.94,VWS V13.01,2013-03-08 02:34:00,
2013-03-07 21:39:00,34.9,30.2,30.07,WNW,299,0.0,3.1,83,0.00,,,4.94,VWS V13.01,2013-03-08 02:39:00,
2013-03-07 21:44:00,34.7,30.1,30.07,WNW,299,0.0,2.7,83,0.00,,,4.94,VWS V13.01,2013-03-08 02:44:00,
2013-03-07 21:49:00,34.9,30.2,30.07,WNW,299,0.0,0.0,83,0.00,,,4.94,VWS V13.01,2013-03-08 02:49:00,
2013-03-07 21:54:00,34.9,30.2,30.07,WNW,299,0.0,2.2,83,0.00,,,4.94,VWS V13.01,2013-03-08 02:54:00,
2013-03-07 21:59:00,34.9,30.0,30.07,WNW,299,0.0,0.0,82,0.00,,,4.94,VWS V13.01,2013-03-08 02:59:00,
2013-03-07 22:04:00,34.7,29.8,30.07,WNW,299,0.0,0.0,82,0.00,,,4.94,VWS V13.01,2013-03-08 03:04:00,
2013-03-07 22:09:00,34.7,29.8,30.07,WNW,299,0.0,2.2,82,0.00,,,4.94,VWS V13.01,2013-03-08 03:09:00,
2013-03-07 22:14:00,34.7,30.1,30.07,WNW,299,0.0,0.0,83,2.47,,,7.41,VWS V13.01,2013-03-08 03:14:00,
2013-03-07 22:19:00,34.5,29.9,30.07,WNW,299,0.0,0.0,83,2.47,,,7.41,VWS V13.01,2013-03-08 03:19:00,
2013-03-07 22:24:00,34.5,29.9,30.07,WNW,299,0.0,0.0,83,2.47,,,7.41,VWS V13.01,2013-03-08 03:24:00,
2013-03-07 22:29:00,34.5,29.9,30.07,WNW,299,0.0,0.0,83,2.47,,,7.41,VWS V13.01,2013-03-08 03:29:00,
2013-03-07 22:34:00,34.5,29.9,30.07,WNW,299,0.0,2.7,83,2.47,,,7.41,VWS V13.01,2013-03-08 03:34:00,
2013-03-07 22:39:00,34.5,29.9,30.07,WNW,299,0.0,0.0,83,2.47,,,7.41,VWS V13.01,2013-03-08 03:39:00,
2013-03-07 22:44:00,34.5,29.9,30.07,WNW,299,0.0,0.0,83,2.47,,,7.41,VWS V13.01,2013-03-08 03:44:00,
2013-03-07 22:50:00,34.3,29.7,30.07,WNW,299,0.0,0.0,83,2.47,,,7.41,VWS V13.01,2013-03-08 03:50:00,
2013-03-07 22:55:00,34.3,29.7,30.07,WNW,299,0.0,2.2,83,2.47,,,7.41,VWS V13.01,2013-03-08 03:55:00,
2013-03-07 23:00:00,34.3,29.7,30.07,WNW,299,0.0,0.0,83,2.47,,,7.41,VWS V13.01,2013-03-08 04:00:00,
2013-03-07 23:05:00,34.2,29.8,30.07,WNW,299,0.0,0.0,84,2.47,,,7.41,VWS V13.01,2013-03-08 04:05:00,
2013-03-07 23:10:00,34.2,29.8,30.07,WNW,299,0.0,0.0,84,2.47,,,7.41,VWS V13.01,2013-03-08 04:10:00,
2013-03-07 23:15:00,34.2,29.8,30.07,WNW,299,0.0,0.0,84,2.47,,,7.41,VWS V13.01,2013-03-08 04:15:00,
2013-03-07 23:20:00,34.0,29.7,30.07,WNW,299,0.0,0.0,84,0.00,,,7.41,VWS V13.01,2013-03-08 04:20:00,
2013-03-07 23:25:00,34.0,29.7,30.07,WNW,299,0.0,0.0,84,0.00,,,7.41,VWS V13.01,2013-03-08 04:25:00,
2013-03-07 23:30:00,34.0,29.7,30.07,WNW,299,0.0,0.0,84,0.00,,,7.41,VWS V13.01,2013-03-08 04:30:00,
2013-03-07 23:35:00,34.0,30.0,30.07,WNW,299,0.0,0.0,85,0.00,,,7.41,VWS V13.01,2013-03-08 04:35:00,
2013-03-07 23:40:00,34.0,30.0,30.07,WNW,299,0.0,0.0,85,0.00,,,7.41,VWS V13.01,2013-03-08 04:40:00,
2013-03-07 23:45:00,34.0,30.0,30.04,WNW,299,0.0,0.0,85,0.00,,,7.41,VWS V13.01,2013-03-08 04:45:00,
2013-03-07 23:50:00,34.0,30.0,30.04,WNW,299,0.0,0.0,85,0.00,,,7.41,VWS V13.01,2013-03-08 04:50:00,
2013-03-07 23:55:00,34.0,30.0,30.04,WNW,299,0.0,0.0,85,0.00,,,7.41,VWS V13.01,2013-03-08 04:55:00,
2013-03-07 23:59:00,34.0,30.0,30.04,WNW,299,0.0,0.0,85,0.00,,,7.41,VWS V13.01,2013-03-08 04:59:00,